Time;durP1;ratioP1;P1;durP2;ratioP2;P2;SDS_P1;SDS_P2;PMS_P1;PMS_P2;Temp;Humidity;BMP_temperature;BMP_pressure;BME280_temperature;BME280_humidity;BME280_pressure;Samples;Min_cycle;Max_cycle;Signal;HPM_P1;HPM_P2
2021/12/22 00:01:37;;;;;;;0.57;0.57;;;-1.50;99.90;;;;;;5257630;28;20526;-71
2021/12/22 00:04:11;;;;;;;0.40;0.40;;;-1.50;99.90;;;;;;5239091;28;20036;-72
2021/12/22 00:06:46;;;;;;;0.52;0.52;;;-1.60;99.90;;;;;;5209621;28;20072;-71
2021/12/22 00:09:22;;;;;;;0.40;0.40;;;-1.70;99.90;;;;;;5250263;28;20441;-72
2021/12/22 00:11:55;;;;;;;0.40;0.40;;;-1.70;99.90;;;;;;5258091;28;20039;-72
2021/12/22 00:14:28;;;;;;;0.95;0.95;;;-1.80;99.90;;;;;;5257502;28;20036;-71
2021/12/22 00:17:02;;;;;;;0.40;0.40;;;-1.80;99.90;;;;;;5240264;28;20494;-71
2021/12/22 00:19:33;;;;;;;0.50;0.50;;;-1.90;99.90;;;;;;5241067;28;20044;-71
2021/12/22 00:22:07;;;;;;;0.50;0.50;;;-1.90;99.90;;;;;;5239908;28;20060;-71
2021/12/22 00:24:40;;;;;;;0.70;0.70;;;-2.10;99.90;;;;;;5258314;28;20127;-71
2021/12/22 00:27:14;;;;;;;0.40;0.40;;;-2.10;99.90;;;;;;5259844;28;20038;-73
2021/12/22 00:29:52;;;;;;;0.50;0.50;;;-2.20;99.90;;;;;;5260340;28;20091;-71
2021/12/22 00:32:32;;;;;;;0.50;0.50;;;-2.30;99.90;;;;;;5260118;28;20175;-72
2021/12/22 00:35:09;;;;;;;0.57;0.57;;;-2.30;99.90;;;;;;5260608;28;20686;-71
2021/12/22 00:37:43;;;;;;;0.50;0.50;;;-2.40;99.90;;;;;;5258742;28;20043;-71
2021/12/22 00:40:14;;;;;;;0.70;0.70;;;-2.50;99.90;;;;;;5258817;28;20338;-71
2021/12/22 00:42:48;;;;;;;1.13;1.13;;;-2.60;99.90;;;;;;5220194;28;20104;-73
2021/12/22 00:45:23;;;;;;;0.50;0.50;;;-2.60;99.90;;;;;;5238410;28;20024;-71
2021/12/22 00:47:59;;;;;;;0.40;0.40;;;-2.70;99.90;;;;;;5237874;28;20308;-71
2021/12/22 00:50:40;;;;;;;0.50;0.50;;;-2.70;99.90;;;;;;5237096;28;20048;-71
2021/12/22 00:53:13;;;;;;;0.50;0.50;;;-2.70;99.90;;;;;;5220867;28;20446;-71
2021/12/22 00:55:44;;;;;;;0.43;0.43;;;-2.80;99.90;;;;;;5238058;28;20090;-71
2021/12/22 00:58:16;;;;;;;0.60;0.60;;;-2.80;99.90;;;;;;5224521;28;20509;-71
2021/12/22 01:00:53;;;;;;;0.40;0.40;;;-2.90;99.90;;;;;;5245499;28;20335;-72
2021/12/22 01:03:25;;;;;;;0.50;0.50;;;-2.90;99.90;;;;;;5258112;28;20065;-71
2021/12/22 01:06:00;;;;;;;0.40;0.40;;;-3.00;99.90;;;;;;5252008;28;20048;-72
2021/12/22 01:08:34;;;;;;;0.60;0.60;;;-3.00;99.90;;;;;;5242323;28;20378;-72
2021/12/22 01:11:06;;;;;;;0.40;0.40;;;-2.90;99.90;;;;;;5229253;28;20031;-71
2021/12/22 01:13:43;;;;;;;0.40;0.40;;;-2.90;99.90;;;;;;5244640;28;20091;-71
2021/12/22 01:16:17;;;;;;;0.50;0.50;;;-2.90;99.90;;;;;;5242664;28;20028;-73
2021/12/22 01:18:48;;;;;;;0.50;0.50;;;-3.00;99.90;;;;;;5241499;28;20065;-71
2021/12/22 01:21:28;;;;;;;0.30;0.30;;;-3.10;99.90;;;;;;5241830;28;20032;-71
2021/12/22 01:24:13;;;;;;;0.40;0.40;;;-3.00;99.90;;;;;;5247241;28;20070;-71
2021/12/22 01:26:50;;;;;;;0.60;0.60;;;-3.10;99.90;;;;;;5262571;28;20036;-72
2021/12/22 01:29:21;;;;;;;0.40;0.40;;;-3.10;99.90;;;;;;5262720;28;20046;-71
2021/12/22 01:32:00;;;;;;;0.50;0.50;;;-3.10;99.90;;;;;;5255171;28;20375;-71
2021/12/22 01:34:32;;;;;;;0.60;0.60;;;-3.20;99.90;;;;;;5259170;28;20027;-72
2021/12/22 01:37:05;;;;;;;1.70;1.60;;;-3.30;99.90;;;;;;5260532;28;20087;-72
2021/12/22 01:39:38;;;;;;;0.50;0.50;;;-3.30;99.90;;;;;;5263663;28;20085;-72
2021/12/22 01:42:11;;;;;;;0.40;0.40;;;-3.40;99.90;;;;;;5263136;28;20032;-71
2021/12/22 01:50:43;;;;;;;0.40;0.40;;;-3.50;99.90;;;;;;5264532;28;20028;-71
2021/12/22 01:53:23;;;;;;;0.40;0.40;;;-3.50;99.90;;;;;;5245419;28;20345;-71
2021/12/22 01:56:12;;;;;;;0.50;0.50;;;-3.60;99.90;;;;;;5263445;28;20058;-71
2021/12/22 01:58:51;;;;;;;0.40;0.40;;;-3.60;99.90;;;;;;5246418;28;20059;-71
2021/12/22 02:01:33;;;;;;;0.60;0.60;;;-3.60;99.90;;;;;;5239623;28;20020;-71
2021/12/22 02:04:10;;;;;;;0.40;0.40;;;-3.70;99.90;;;;;;5260672;28;20028;-71
2021/12/22 02:06:48;;;;;;;0.63;0.63;;;-3.70;99.90;;;;;;5269689;28;20056;-71
2021/12/22 02:10:12;;;;;;;0.40;0.40;;;-3.60;99.90;;;;;;5263189;28;20122;-72
2021/12/22 02:12:18;;;;;;;0.40;0.40;;;-3.70;99.90;;;;;;5256531;28;20040;-71
2021/12/22 02:14:50;;;;;;;0.60;0.60;;;-3.60;99.90;;;;;;5259733;28;20070;-71
2021/12/22 02:17:29;;;;;;;0.40;0.40;;;-3.60;99.90;;;;;;5243193;28;20081;-71
2021/12/22 02:20:06;;;;;;;0.40;0.40;;;-3.50;99.90;;;;;;5260972;28;20032;-71
2021/12/22 02:22:40;;;;;;;0.30;0.30;;;-3.50;99.90;;;;;;5244688;28;20468;-72
2021/12/22 02:25:20;;;;;;;0.93;0.93;;;-3.50;99.90;;;;;;5262060;28;20035;-71
2021/12/22 02:27:57;;;;;;;0.50;0.50;;;-3.50;99.90;;;;;;5229693;28;20473;-72
2021/12/22 02:30:32;;;;;;;0.40;0.40;;;-3.40;99.90;;;;;;5260171;28;20085;-71
2021/12/22 02:38:45;;;;;;;0.40;0.40;;;-3.30;99.90;;;;;;5262368;28;20027;-71
2021/12/22 02:41:23;;;;;;;1.63;1.53;;;-3.40;99.90;;;;;;5262993;28;20040;-72
2021/12/22 02:44:02;;;;;;;0.50;0.50;;;-3.40;99.90;;;;;;5263225;28;20066;-71
2021/12/22 02:46:38;;;;;;;0.40;0.40;;;-3.30;99.90;;;;;;5245687;28;20036;-72
2021/12/22 02:49:10;;;;;;;0.40;0.40;;;-3.30;99.90;;;;;;5260650;28;20102;-71
2021/12/22 02:51:44;;;;;;;0.50;0.50;;;-3.30;99.90;;;;;;5257942;28;20103;-71
2021/12/22 02:54:20;;;;;;;1.10;1.10;;;-3.20;99.90;;;;;;5260997;28;20050;-72
2021/12/22 02:56:56;;;;;;;0.40;0.40;;;-3.20;99.90;;;;;;5260930;28;20331;-73
2021/12/22 03:04:57;;;;;;;0.60;0.60;;;-3.20;99.90;;;;;;5255419;28;20051;-72
2021/12/22 03:07:31;;;;;;;1.03;1.03;;;-3.30;99.90;;;;;;5260553;28;20036;-72
2021/12/22 03:10:12;;;;;;;;;;;-3.30;99.90;;;;;;5260370;28;20020;-71
2021/12/22 03:13:01;;;;;;;0.40;0.40;;;-3.40;99.90;;;;;;5251769;28;19924;-70
2021/12/22 03:15:32;;;;;;;0.40;0.40;;;-3.40;99.90;;;;;;5241556;28;20020;-73
2021/12/22 03:18:09;;;;;;;0.40;0.40;;;-3.40;99.90;;;;;;5239375;28;20369;-73
2021/12/22 03:20:45;;;;;;;0.50;0.50;;;-3.50;99.90;;;;;;5223055;28;20342;-71
2021/12/22 03:23:20;;;;;;;0.57;0.57;;;-3.50;99.90;;;;;;5221940;28;20037;-70
2021/12/22 03:25:54;;;;;;;0.50;0.50;;;-3.60;99.90;;;;;;5252777;28;20040;-71
2021/12/22 03:28:27;;;;;;;0.40;0.40;;;-3.70;99.90;;;;;;5256381;28;20035;-70
2021/12/22 03:31:01;;;;;;;0.50;0.50;;;-3.70;99.90;;;;;;5252905;28;20074;-70
2021/12/22 03:33:37;;;;;;;0.40;0.40;;;-3.70;99.90;;;;;;5240013;28;20382;-71
2021/12/22 03:36:08;;;;;;;0.40;0.40;;;-3.70;99.90;;;;;;5258742;28;20039;-71
2021/12/22 03:38:40;;;;;;;0.40;0.40;;;-3.60;99.90;;;;;;5241700;28;20032;-71
2021/12/22 03:41:11;;;;;;;0.40;0.40;;;-3.40;99.90;;;;;;5256295;28;20039;-71
2021/12/22 03:43:42;;;;;;;0.40;0.40;;;-3.20;99.90;;;;;;5211780;28;20024;-71
2021/12/22 03:46:20;;;;;;;0.50;0.50;;;-3.00;99.90;;;;;;5238286;28;20077;-71
2021/12/22 03:48:53;;;;;;;0.40;0.40;;;-2.90;99.90;;;;;;5238332;28;20036;-71
2021/12/22 03:51:30;;;;;;;0.87;0.87;;;-2.80;99.90;;;;;;5244309;28;20032;-70
2021/12/22 03:54:05;;;;;;;0.50;0.50;;;-2.70;99.90;;;;;;5259419;28;20043;-70
2021/12/22 03:56:43;;;;;;;0.50;0.50;;;-2.60;99.90;;;;;;5257521;28;20746;-70
2021/12/22 03:59:24;;;;;;;0.50;0.50;;;-2.50;99.90;;;;;;5258573;28;20333;-71
2021/12/22 04:01:54;;;;;;;0.50;0.50;;;-2.40;99.90;;;;;;5239649;28;20044;-72
2021/12/22 04:04:25;;;;;;;0.53;0.53;;;-2.40;99.90;;;;;;5251993;28;20034;-73
2021/12/22 04:06:57;;;;;;;0.50;0.50;;;-2.30;99.90;;;;;;5276474;28;20085;-70
2021/12/22 04:09:28;;;;;;;0.63;0.63;;;-2.30;99.90;;;;;;5244119;28;20095;-71
2021/12/22 04:12:02;;;;;;;0.40;0.40;;;-2.40;99.90;;;;;;5260922;28;20279;-71
2021/12/22 04:14:35;;;;;;;;;;;-2.30;99.90;;;;;;5259325;28;20039;-72
2021/12/22 04:17:08;;;;;;;0.60;0.60;;;-2.30;99.90;;;;;;5258859;28;20428;-72
2021/12/22 04:19:44;;;;;;;0.53;0.53;;;-2.20;99.90;;;;;;5259757;28;20044;-72
2021/12/22 04:22:16;;;;;;;0.50;0.50;;;-2.10;99.90;;;;;;5242492;28;20226;-72
2021/12/22 04:24:50;;;;;;;0.30;0.30;;;-2.10;99.90;;;;;;5258526;28;20028;-72
2021/12/22 04:27:21;;;;;;;0.80;0.80;;;-1.90;99.90;;;;;;5257943;28;20055;-72
2021/12/22 04:30:00;;;;;;;0.60;0.60;;;-1.90;99.90;;;;;;5242539;28;20043;-72
2021/12/22 04:32:33;;;;;;;0.57;0.57;;;-1.90;99.90;;;;;;5257844;28;20039;-72
2021/12/22 04:35:07;;;;;;;0.60;0.60;;;-1.90;99.90;;;;;;5258155;28;20063;-73
2021/12/22 04:37:40;;;;;;;0.40;0.40;;;-2.10;99.90;;;;;;5259775;28;20048;-72
2021/12/22 04:40:16;;;;;;;0.50;0.50;;;-2.30;99.90;;;;;;5257729;28;20126;-72
2021/12/22 04:42:50;;;;;;;0.43;0.43;;;-2.40;99.90;;;;;;5259219;28;20055;-72
2021/12/22 04:45:26;;;;;;;0.40;0.40;;;-2.50;99.90;;;;;;5261808;28;20031;-71
2021/12/22 04:48:02;;;;;;;0.70;0.70;;;-2.70;99.90;;;;;;5265289;28;20024;-70
2021/12/22 04:50:38;;;;;;;0.50;0.50;;;-2.80;99.90;;;;;;5265750;28;20043;-71
2021/12/22 04:53:23;;;;;;;0.40;0.40;;;-2.70;99.90;;;;;;5262946;28;20024;-71
2021/12/22 04:55:54;;;;;;;2.00;1.03;;;-2.80;99.90;;;;;;5261111;28;20070;-71
2021/12/22 04:58:26;;;;;;;0.40;0.40;;;-2.90;99.90;;;;;;5264620;28;20039;-71
2021/12/22 05:01:02;;;;;;;0.40;0.40;;;-3.00;99.90;;;;;;5255369;28;20040;-71
2021/12/22 05:03:35;;;;;;;0.40;0.40;;;-3.10;99.90;;;;;;5242777;28;20174;-71
2021/12/22 05:06:08;;;;;;;0.60;0.60;;;-3.20;99.90;;;;;;5237321;28;20048;-71
2021/12/22 05:08:42;;;;;;;0.40;0.40;;;-3.20;99.90;;;;;;5261336;28;20028;-73
2021/12/22 05:11:18;;;;;;;0.60;0.60;;;-3.10;99.90;;;;;;5262313;28;20032;-70
2021/12/22 05:13:51;;;;;;;9.43;3.70;;;-2.80;99.90;;;;;;5262351;28;20036;-71
2021/12/22 05:16:28;;;;;;;0.70;0.70;;;-2.60;99.90;;;;;;5262824;28;20069;-70
2021/12/22 05:21:35;;;;;;;0.50;0.50;;;-2.40;99.90;;;;;;5261102;28;20069;-71
2021/12/22 05:24:06;;;;;;;0.60;0.60;;;-2.20;99.90;;;;;;5263042;28;20016;-71
2021/12/22 05:26:40;;;;;;;0.43;0.43;;;-2.30;99.90;;;;;;5264202;28;20027;-71
2021/12/22 05:29:18;;;;;;;0.53;0.53;;;-2.30;99.90;;;;;;5263719;28;20020;-71
2021/12/22 05:31:54;;;;;;;0.97;0.97;;;-2.20;99.90;;;;;;5261270;28;20035;-72
2021/12/22 05:34:32;;;;;;;0.50;0.50;;;-2.40;99.90;;;;;;5261920;28;20036;-73
2021/12/22 05:37:06;;;;;;;0.50;0.50;;;-2.50;99.90;;;;;;5260489;28;20035;-72
2021/12/22 05:39:43;;;;;;;0.50;0.50;;;-2.60;99.90;;;;;;5261608;28;20035;-72
2021/12/22 05:42:18;;;;;;;0.63;0.63;;;-2.80;99.90;;;;;;5261102;28;20036;-72
2021/12/22 05:44:58;;;;;;;0.50;0.50;;;-2.90;99.90;;;;;;5244299;28;20080;-72
2021/12/22 05:47:34;;;;;;;0.67;0.67;;;-3.00;99.90;;;;;;5262160;28;20454;-72
2021/12/22 05:50:08;;;;;;;0.40;0.40;;;-3.20;99.90;;;;;;5258353;28;20432;-72
2021/12/22 05:52:47;;;;;;;0.47;0.47;;;-3.30;99.90;;;;;;5256742;28;20028;-72
2021/12/22 05:55:20;;;;;;;0.40;0.40;;;-3.40;99.90;;;;;;5247106;28;20036;-72
2021/12/22 05:57:54;;;;;;;0.50;0.50;;;-3.50;99.90;;;;;;5250855;28;20032;-73
2021/12/22 06:00:30;;;;;;;0.57;0.57;;;-3.50;99.90;;;;;;5251995;28;20032;-72
2021/12/22 06:03:04;;;;;;;1.13;1.13;;;-3.60;99.90;;;;;;5252964;28;20065;-72
2021/12/22 06:05:36;;;;;;;1.38;1.38;;;-3.60;99.90;;;;;;5254996;28;20056;-71
2021/12/22 06:08:12;;;;;;;1.37;1.27;;;-3.50;99.90;;;;;;5264633;28;20470;-72
2021/12/22 06:10:43;;;;;;;0.70;0.70;;;-3.50;99.90;;;;;;5252193;28;20089;-72
2021/12/22 06:13:17;;;;;;;0.90;0.90;;;-3.50;99.90;;;;;;5252560;28;20028;-72
2021/12/22 06:15:47;;;;;;;0.50;0.50;;;-3.40;99.90;;;;;;5248520;28;20033;-72
2021/12/22 06:18:20;;;;;;;0.40;0.40;;;-3.40;99.90;;;;;;5249664;28;20131;-72
2021/12/22 06:20:51;;;;;;;0.83;0.83;;;-3.50;99.90;;;;;;5235952;28;20493;-71
2021/12/22 06:23:23;;;;;;;0.40;0.40;;;-3.50;99.90;;;;;;5243130;28;20067;-72
2021/12/22 06:25:57;;;;;;;0.67;0.67;;;-3.50;99.90;;;;;;5261882;28;20043;-73
2021/12/22 06:28:30;;;;;;;1.77;1.65;;;-3.50;99.90;;;;;;5262317;28;20099;-72
2021/12/22 06:31:03;;;;;;;0.50;0.50;;;-3.50;99.90;;;;;;5262859;28;20051;-72
2021/12/22 06:33:37;;;;;;;0.40;0.40;;;-3.50;99.90;;;;;;5262781;28;20036;-72
2021/12/22 06:36:14;;;;;;;0.55;0.55;;;-3.50;99.90;;;;;;5246362;28;20289;-72
2021/12/22 06:38:47;;;;;;;0.43;0.43;;;-3.50;99.90;;;;;;5246248;28;20039;-72
2021/12/22 06:41:20;;;;;;;5.40;4.88;;;-3.60;99.90;;;;;;5262818;28;20076;-72
2021/12/22 06:43:54;;;;;;;0.97;0.97;;;-3.60;99.90;;;;;;5245927;28;20458;-72
2021/12/22 06:46:29;;;;;;;0.95;0.82;;;-3.70;99.90;;;;;;5261321;28;20089;-72
2021/12/22 06:49:03;;;;;;;0.40;0.40;;;-3.70;99.90;;;;;;5259602;28;20059;-72
2021/12/22 06:51:40;;;;;;;0.60;0.60;;;-3.70;99.90;;;;;;5261815;28;20035;-72
2021/12/22 06:54:13;;;;;;;0.40;0.40;;;-3.80;99.90;;;;;;5253950;28;20047;-72
2021/12/22 06:56:47;;;;;;;1.50;1.42;;;-3.70;99.90;;;;;;5261937;28;20517;-73
2021/12/22 06:59:21;;;;;;;0.40;0.40;;;-3.70;99.90;;;;;;5262911;28;20096;-72
2021/12/22 07:01:52;;;;;;;0.60;0.60;;;-3.80;99.90;;;;;;5262565;28;20032;-72
2021/12/22 07:04:28;;;;;;;0.60;0.60;;;-3.70;99.90;;;;;;5255135;28;20051;-72
2021/12/22 07:07:01;;;;;;;0.50;0.50;;;-3.60;99.90;;;;;;5263270;28;20024;-72
2021/12/22 07:09:33;;;;;;;0.80;0.80;;;-3.50;99.90;;;;;;5263747;28;20020;-72
2021/12/22 07:12:06;;;;;;;0.70;0.70;;;-3.40;99.90;;;;;;5260649;28;20024;-72
2021/12/22 07:14:40;;;;;;;0.60;0.60;;;-3.40;99.90;;;;;;5241190;28;20040;-72
2021/12/22 07:17:11;;;;;;;0.43;0.43;;;-3.30;99.90;;;;;;5256997;28;20020;-71
2021/12/22 07:19:50;;;;;;;0.87;0.87;;;-3.30;99.90;;;;;;5257780;28;20036;-72
2021/12/22 07:22:23;;;;;;;0.43;0.43;;;-3.20;99.90;;;;;;5259760;28;20043;-72
2021/12/22 07:24:55;;;;;;;0.63;0.63;;;-3.20;99.90;;;;;;5259588;28;20027;-71
2021/12/22 07:27:26;;;;;;;0.40;0.40;;;-3.10;99.90;;;;;;5259303;28;20040;-72
2021/12/22 07:29:58;;;;;;;0.50;0.50;;;-3.10;99.90;;;;;;5243648;28;20091;-73
2021/12/22 07:32:35;;;;;;;0.50;0.50;;;-3.00;99.90;;;;;;5275064;28;20046;-73
2021/12/22 07:35:30;;;;;;;0.80;0.80;;;-2.80;99.90;;;;;;5259243;28;20030;-74
2021/12/22 07:38:24;;;;;;;1.33;1.30;;;-2.80;99.90;;;;;;5239184;28;20106;-73
2021/12/22 07:41:06;;;;;;;0.40;0.40;;;-2.60;99.90;;;;;;5255592;28;20078;-73
2021/12/22 07:43:37;;;;;;;0.70;0.70;;;-2.50;99.90;;;;;;5257856;28;20104;-73
2021/12/22 07:46:08;;;;;;;1.07;1.07;;;-2.40;99.90;;;;;;5258723;28;20028;-74
2021/12/22 07:48:40;;;;;;;0.50;0.50;;;-2.30;99.90;;;;;;5240077;28;20564;-73
2021/12/22 07:51:11;;;;;;;0.60;0.60;;;-2.20;99.90;;;;;;5259825;28;20035;-73
2021/12/22 07:53:50;;;;;;;0.50;0.50;;;-2.10;99.90;;;;;;5252439;28;20274;-73
2021/12/22 07:56:26;;;;;;;0.57;0.57;;;-2.00;99.90;;;;;;5246225;28;20087;-73
2021/12/22 07:58:57;;;;;;;0.80;0.80;;;-1.80;99.90;;;;;;5255916;28;20027;-73
2021/12/22 08:01:29;;;;;;;0.50;0.50;;;-1.70;99.90;;;;;;5240902;28;20353;-73
2021/12/22 08:04:02;;;;;;;0.60;0.60;;;-1.50;99.90;;;;;;5234026;28;20035;-73
2021/12/22 08:06:36;;;;;;;0.50;0.50;;;-1.40;99.90;;;;;;5212901;28;20063;-73
2021/12/22 08:09:08;;;;;;;0.60;0.60;;;-1.30;99.90;;;;;;5248897;28;20334;-73
2021/12/22 08:11:43;;;;;;;0.40;0.40;;;-1.20;99.90;;;;;;5255972;28;20032;-73
2021/12/22 08:14:17;;;;;;;0.70;0.70;;;-1.10;99.90;;;;;;5251750;28;20031;-73
2021/12/22 08:16:49;;;;;;;0.53;0.53;;;-1.00;99.90;;;;;;5241956;28;20051;-73
2021/12/22 08:19:23;;;;;;;1.23;1.23;;;-0.90;99.90;;;;;;5224791;28;20047;-73
2021/12/22 08:22:01;;;;;;;1.00;1.00;;;-0.90;99.90;;;;;;5209526;28;20046;-73
2021/12/22 08:24:37;;;;;;;0.53;0.53;;;-0.80;99.90;;;;;;5224237;28;20071;-73
2021/12/22 08:27:08;;;;;;;0.70;0.70;;;-0.80;99.90;;;;;;5243268;28;20051;-73
2021/12/22 08:29:42;;;;;;;0.70;0.70;;;-0.70;99.90;;;;;;5259410;28;20059;-73
2021/12/22 08:32:18;;;;;;;0.70;0.70;;;-0.60;99.90;;;;;;5257388;28;20067;-73
2021/12/22 08:34:56;;;;;;;1.00;1.00;;;-0.60;99.90;;;;;;5224644;28;20420;-73
2021/12/22 08:40:25;;;;;;;0.70;0.70;;;-0.50;99.90;;;;;;5221937;28;20032;-73
2021/12/22 08:42:56;;;;;;;0.50;0.50;;;-0.40;99.90;;;;;;5244467;28;20089;-74
2021/12/22 08:45:29;;;;;;;0.50;0.50;;;-0.40;99.90;;;;;;5254008;28;20185;-74
2021/12/22 08:48:06;;;;;;;0.77;0.77;;;-0.40;99.90;;;;;;5248336;28;20047;-74
2021/12/22 08:50:39;;;;;;;1.47;1.47;;;-0.40;99.90;;;;;;5257906;28;20480;-74
2021/12/22 08:53:10;;;;;;;0.60;0.60;;;-0.30;99.90;;;;;;5239772;28;20040;-74
2021/12/22 08:55:41;;;;;;;0.93;0.93;;;-0.20;99.90;;;;;;5257328;28;20277;-74
2021/12/22 08:58:17;;;;;;;0.60;0.60;;;-0.10;99.90;;;;;;5258688;28;20473;-74
2021/12/22 09:00:51;;;;;;;0.47;0.47;;;-0.20;99.90;;;;;;5258171;28;20211;-74
2021/12/22 09:03:24;;;;;;;0.60;0.60;;;-0.20;99.90;;;;;;5257304;28;20024;-74
2021/12/22 09:05:55;;;;;;;1.03;1.03;;;-0.10;99.90;;;;;;5234034;28;20273;-75
2021/12/22 09:08:26;;;;;;;0.40;0.40;;;-0.10;99.90;;;;;;5249724;28;20277;-75
2021/12/22 09:11:03;;;;;;;0.50;0.50;;;0.10;99.90;;;;;;5250972;28;20028;-75
2021/12/22 09:13:40;;;;;;;0.50;0.50;;;0.10;99.90;;;;;;5259326;28;20207;-77
2021/12/22 09:16:17;;;;;;;0.43;0.43;;;0.00;99.90;;;;;;5254475;28;20032;-76
2021/12/22 09:18:52;;;;;;;0.50;0.50;;;0.20;99.90;;;;;;5259405;28;20038;-76
2021/12/22 09:21:25;;;;;;;0.85;0.85;;;0.20;99.90;;;;;;5257379;28;20059;-76
2021/12/22 09:23:59;;;;;;;0.90;0.90;;;0.00;99.90;;;;;;5260551;28;20044;-77
2021/12/22 09:26:39;;;;;;;1.90;1.80;;;0.10;99.90;;;;;;5259447;28;20047;-76
2021/12/22 09:29:13;;;;;;;0.70;0.70;;;0.10;99.90;;;;;;5254827;28;20052;-77
2021/12/22 09:31:48;;;;;;;0.82;0.82;;;0.10;99.90;;;;;;5231951;28;20350;-76
2021/12/22 09:34:19;;;;;;;0.50;0.50;;;0.20;99.90;;;;;;5246930;28;20328;-76
2021/12/22 09:36:52;;;;;;;0.60;0.60;;;0.40;99.90;;;;;;5261433;28;20023;-76
2021/12/22 09:39:25;;;;;;;0.40;0.40;;;0.40;99.90;;;;;;5259640;28;20031;-76
2021/12/22 09:42:01;;;;;;;0.50;0.50;;;0.40;99.90;;;;;;5258667;28;20275;-76
2021/12/22 09:44:37;;;;;;;0.77;0.77;;;0.40;99.90;;;;;;5262629;28;20028;-76
2021/12/22 09:47:13;;;;;;;0.60;0.60;;;0.50;99.90;;;;;;5262040;28;20020;-76
2021/12/22 09:52:26;;;;;;;0.70;0.70;;;0.70;99.90;;;;;;5277100;28;20325;-75
2021/12/22 09:55:00;;;;;;;0.60;0.60;;;0.70;99.90;;;;;;5260365;28;20419;-75
2021/12/22 09:57:37;;;;;;;1.20;1.20;;;0.80;99.90;;;;;;5259518;28;20301;-75
2021/12/22 10:00:11;;;;;;;1.05;1.05;;;1.00;99.90;;;;;;5237097;28;20043;-75
2021/12/22 10:02:47;;;;;;;0.80;0.80;;;1.30;99.90;;;;;;5261494;28;20061;-76
2021/12/22 10:05:21;;;;;;;0.50;0.50;;;1.50;99.90;;;;;;5241165;28;20400;-77
2021/12/22 10:08:29;;;;;;;0.50;0.50;;;1.80;99.90;;;;;;5241493;28;20024;-77
2021/12/22 10:11:09;;;;;;;0.60;0.60;;;2.40;99.90;;;;;;5164216;28;20049;-77
2021/12/22 10:13:44;;;;;;;0.40;0.40;;;2.90;99.90;;;;;;5176081;28;20092;-77
2021/12/22 10:16:18;;;;;;;;;;;3.00;99.90;;;;;;5176012;28;20065;-77
2021/12/22 10:19:15;;;;;;;0.60;0.60;;;3.10;99.90;;;;;;5158006;28;19945;-76
2021/12/22 10:22:05;;;;;;;0.55;0.55;;;3.50;99.90;;;;;;5179987;28;20115;-77
2021/12/22 10:24:42;;;;;;;0.70;0.70;;;3.70;99.90;;;;;;5160441;28;20497;-77
2021/12/22 10:27:27;;;;;;;0.47;0.47;;;5.00;99.90;;;;;;5159727;28;20053;-77
2021/12/22 10:29:58;;;;;;;;;;;6.00;99.90;;;;;;5153813;28;20041;-77
2021/12/22 10:32:32;;;;;;;0.60;0.60;;;6.60;99.90;;;;;;5159187;28;20515;-76
2021/12/22 10:35:10;;;;;;;;;;;6.60;99.90;;;;;;5143529;28;20041;-78
2021/12/22 10:37:44;;;;;;;0.75;0.75;;;6.50;99.90;;;;;;5150882;28;19984;-76
2021/12/22 10:40:22;;;;;;;0.60;0.60;;;6.50;99.90;;;;;;5136457;28;20037;-77
2021/12/22 10:42:57;;;;;;;0.50;0.50;;;7.20;99.90;;;;;;5158738;28;20037;-77
2021/12/22 10:45:35;;;;;;;0.45;0.45;;;7.70;99.90;;;;;;5168192;28;20326;-77
2021/12/22 10:50:59;;;;;;;1.00;1.00;;;8.40;99.90;;;;;;5241392;28;20063;-77
2021/12/22 10:53:30;;;;;;;0.70;0.70;;;8.60;99.90;;;;;;5243171;28;20032;-78
2021/12/22 10:56:07;;;;;;;0.52;0.52;;;8.70;99.90;;;;;;5244780;28;20099;-77
2021/12/22 10:58:43;;;;;;;0.68;0.68;;;8.80;99.90;;;;;;5244736;28;20284;-77
2021/12/22 11:01:17;;;;;;;0.90;0.90;;;8.60;99.90;;;;;;5262138;28;20546;-77
2021/12/22 11:04:02;;;;;;;1.10;1.10;;;9.00;99.90;;;;;;5261770;28;20194;-77
2021/12/22 11:06:43;;;;;;;1.10;1.10;;;9.30;99.90;;;;;;5252263;28;20059;-77
2021/12/22 11:09:16;;;;;;;0.85;0.85;;;10.00;99.90;;;;;;5255986;28;20230;-77
2021/12/22 11:11:59;;;;;;;0.88;0.88;;;10.40;99.90;;;;;;5259018;28;20245;-78
2021/12/22 11:14:36;;;;;;;1.25;1.25;;;10.20;99.90;;;;;;5261933;28;20109;-78
2021/12/22 11:17:13;;;;;;;1.33;1.33;;;10.20;99.90;;;;;;5227124;28;20479;-77
2021/12/22 11:20:05;;;;;;;0.60;0.60;;;9.20;99.90;;;;;;5257429;28;20418;-76
2021/12/22 11:25:27;;;;;;;1.10;1.10;;;10.40;99.90;;;;;;5261426;28;20111;-78
2021/12/22 11:28:01;;;;;;;0.60;0.60;;;10.50;99.90;;;;;;5259079;28;20123;-78
2021/12/22 11:30:35;;;;;;;1.10;1.10;;;10.10;99.90;;;;;;5226901;28;20277;-77
2021/12/22 11:33:08;;;;;;;0.80;0.80;;;10.40;99.90;;;;;;5256167;28;20108;-79
2021/12/22 11:35:41;;;;;;;0.90;0.90;;;10.10;99.90;;;;;;5242872;28;20237;-79
2021/12/22 11:38:16;;;;;;;2.00;1.90;;;10.30;99.90;;;;;;5257944;28;20067;-79
2021/12/22 11:40:55;;;;;;;0.85;0.85;;;10.30;99.90;;;;;;5234703;28;20048;-79
2021/12/22 11:43:35;;;;;;;1.02;1.02;;;10.50;99.90;;;;;;5243645;28;20971;-79
2021/12/22 11:46:14;;;;;;;1.00;1.00;;;11.20;99.90;;;;;;5226616;28;20496;-78
2021/12/22 11:48:54;;;;;;;1.00;1.00;;;11.70;99.90;;;;;;5240062;28;20032;-79
2021/12/22 11:51:31;;;;;;;1.15;1.15;;;11.10;99.90;;;;;;5260571;28;20043;-79
2021/12/22 11:54:09;;;;;;;1.10;1.10;;;9.70;99.90;;;;;;5259095;28;20070;-76
2021/12/22 11:56:49;;;;;;;0.50;0.50;;;7.70;99.90;;;;;;5243387;28;20036;-78
2021/12/22 11:59:40;;;;;;;0.82;0.82;;;7.20;99.90;;;;;;5247480;28;20032;-78
2021/12/22 12:02:33;;;;;;;0.82;0.82;;;6.90;99.90;;;;;;5254110;28;20094;-77
2021/12/22 12:05:27;;;;;;;0.98;0.98;;;6.20;99.90;;;;;;5251118;28;20056;-78
2021/12/22 12:08:06;;;;;;;0.88;0.88;;;5.70;99.90;;;;;;5254933;28;20070;-76
2021/12/22 12:10:49;;;;;;;1.15;1.15;;;5.70;99.90;;;;;;5260966;28;20257;-76
2021/12/22 12:13:37;;;;;;;0.88;0.88;;;4.80;99.90;;;;;;5243625;28;20059;-76
2021/12/22 12:22:16;;;;;;;0.55;0.55;;;3.50;99.90;;;;;;5256321;28;20031;-75
2021/12/22 12:25:20;;;;;;;0.77;0.77;;;3.20;99.90;;;;;;5259906;28;20024;-75
2021/12/22 12:27:54;;;;;;;0.40;0.40;;;2.80;99.90;;;;;;5243684;28;20384;-75
2021/12/22 12:30:45;;;;;;;;;;;2.60;99.90;;;;;;5261085;28;20091;-75
2021/12/22 12:33:29;;;;;;;4.43;4.13;;;2.50;99.90;;;;;;5242158;28;19920;-77
2021/12/22 12:36:08;;;;;;;0.90;0.90;;;2.20;99.90;;;;;;5256460;28;20324;-75
2021/12/22 12:38:52;;;;;;;1.83;1.73;;;2.00;99.90;;;;;;5259780;28;20099;-75
2021/12/22 12:41:35;;;;;;;1.02;1.02;;;1.80;99.90;;;;;;5242281;28;20028;-75
2021/12/22 12:44:10;;;;;;;0.77;0.77;;;1.80;99.90;;;;;;5261114;28;20047;-76
2021/12/22 12:46:45;;;;;;;0.60;0.60;;;2.00;99.90;;;;;;5246671;28;20560;-75
2021/12/22 12:49:19;;;;;;;3.50;3.15;;;2.00;99.90;;;;;;5253668;28;20111;-75
2021/12/22 12:51:53;;;;;;;0.80;0.80;;;2.20;99.90;;;;;;5261055;28;20233;-76
2021/12/22 12:54:28;;;;;;;0.93;0.93;;;3.10;99.90;;;;;;5259637;28;20095;-74
2021/12/22 12:57:19;;;;;;;2.47;1.13;;;4.40;99.90;;;;;;5259579;28;20055;-75
2021/12/22 12:59:55;;;;;;;1.05;1.05;;;4.90;99.90;;;;;;5208342;28;20037;-77
2021/12/22 13:02:29;;;;;;;0.73;0.73;;;5.60;99.90;;;;;;5250295;28;20052;-73
2021/12/22 13:05:11;;;;;;;1.88;1.73;;;5.60;99.90;;;;;;5254475;28;20281;-75
2021/12/22 13:07:45;;;;;;;0.63;0.63;;;5.20;99.90;;;;;;5272727;28;20423;-75
2021/12/22 13:10:24;;;;;;;0.63;0.63;;;4.20;99.90;;;;;;5256064;28;20053;-74
2021/12/22 13:13:14;;;;;;;0.55;0.55;;;3.70;99.90;;;;;;5264883;28;20329;-75
2021/12/22 13:15:50;;;;;;;0.57;0.57;;;4.80;99.90;;;;;;5256824;28;20306;-75
2021/12/22 13:18:30;;;;;;;1.27;0.70;;;5.60;99.90;;;;;;5253268;28;20035;-75
2021/12/22 13:21:06;;;;;;;1.90;1.80;;;6.10;99.90;;;;;;5226767;28;20534;-75
2021/12/22 13:23:40;;;;;;;1.13;1.13;;;6.20;99.90;;;;;;5227244;28;20107;-75
2021/12/22 13:26:11;;;;;;;0.70;0.70;;;5.50;99.90;;;;;;5254870;28;20094;-75
2021/12/22 13:28:50;;;;;;;1.63;1.52;;;4.40;99.90;;;;;;5255353;28;20756;-75
2021/12/22 13:31:21;;;;;;;1.38;1.38;;;3.10;99.90;;;;;;5262007;28;20028;-74
2021/12/22 13:34:02;;;;;;;1.15;1.15;;;2.40;99.90;;;;;;5256096;28;20067;-75
2021/12/22 13:36:39;;;;;;;0.70;0.70;;;1.60;99.90;;;;;;5264217;28;20083;-76
2021/12/22 13:39:12;;;;;;;0.77;0.77;;;1.80;99.90;;;;;;5262508;28;20023;-75
2021/12/22 13:41:43;;;;;;;0.70;0.70;;;2.10;99.90;;;;;;5254351;28;20085;-75
2021/12/22 13:44:14;;;;;;;0.50;0.50;;;2.00;99.90;;;;;;5263376;28;20175;-76
2021/12/22 13:46:48;;;;;;;0.60;0.60;;;2.00;99.90;;;;;;5259092;28;20539;-76
2021/12/22 13:49:24;;;;;;;0.75;0.75;;;2.00;99.90;;;;;;5251540;28;20055;-76
2021/12/22 13:51:55;;;;;;;1.75;1.65;;;2.00;99.90;;;;;;5262555;28;20047;-76
2021/12/22 13:54:34;;;;;;;0.82;0.82;;;1.80;99.90;;;;;;5251580;28;20348;-76
2021/12/22 13:57:07;;;;;;;0.68;0.68;;;1.70;99.90;;;;;;5261186;28;20321;-76
2021/12/22 13:59:45;;;;;;;0.60;0.60;;;1.50;99.90;;;;;;5261731;28;20036;-76
2021/12/22 14:02:33;;;;;;;0.65;0.65;;;1.30;99.90;;;;;;5260851;28;20032;-76
2021/12/22 14:05:25;;;;;;;0.40;0.40;;;1.10;99.90;;;;;;5246472;28;20059;-77
2021/12/22 14:07:56;;;;;;;0.52;0.52;;;1.00;99.90;;;;;;5269911;28;20047;-77
2021/12/22 14:10:29;;;;;;;0.80;0.80;;;0.80;99.90;;;;;;5263408;28;20489;-77
2021/12/22 14:13:00;;;;;;;0.55;0.55;;;0.70;99.90;;;;;;5276450;28;20366;-76